PWSweather.com
Personal Weather Stations
Station Observations
NAPERVILLE
North Naperville, Naperville, IL 60563

North NapervilleNaperville, IL 60563

Lat: 41.79, Lon: -88.12

Elevation: 771

Station Type:

http://napervilleweather.com

Latest ConditionsUpdated 10:15:00 PM CST Thursday, Dec 13, 2018
Currently Today's Max Today's Min Today's Average
Temperature 39.4°F4.1°C 43.3°F6.3°C 22.6°F-5.2°C 33.4°F0.8°C
Dew Point 38.4°F3.6°C 38.4°F3.6°C 20.7°F-6.3°C 30.1°F-1.1°C
Winds Calm Calm 2.0 mph -3.2 kmh - - 0.2 mph 0.3 kmh
Wind Gusts 1.0 mph1.6 kmh 7.0 mph11.3 kmh - -
Humidity 96% 96% 69% 88%
Pressure 30.14 in1020.7 mb 30.14 in1020.7 mb 30.01 in1016.3 mb -
Precipitation - 0.09 in2.3 mm - -
Hour Temp Dew Point Humidity Winds Wind Gusts Pressure Precip Precip Rate Daily Precip Total
10:15 PM 39.4°F4.1°C 38.4°F3.6°C 96% Calm Calm 1.0 mph1.6 kmh 30.14 in1020.7 mb 0.01 in0.3 mm 0.00 in0.0 mm 0.09 in2.3 mm
10:00 PM 39.3°F4.1°C 38.0°F3.3°C 95% Calm Calm -- 30.13 in1020.3 mb 0.02 in0.5 mm 0.00 in0.0 mm 0.09 in2.3 mm
09:45 PM 39.3°F4.1°C 38.0°F3.3°C 95% Calm Calm -- 30.13 in1020.3 mb 0.03 in0.8 mm 0.04 in1.0 mm 0.09 in2.3 mm
09:30 PM 39.3°F4.1°C 38.0°F3.3°C 95% Calm Calm 1.0 mph1.6 kmh 30.13 in1020.3 mb 0.02 in0.5 mm 0.00 in0.0 mm 0.08 in2.0 mm
09:15 PM 39.3°F4.1°C 38.0°F3.3°C 95% Calm Calm -- 30.13 in1020.3 mb 0.03 in0.8 mm 0.04 in1.0 mm 0.08 in2.0 mm
09:00 PM 39.3°F4.1°C 38.0°F3.3°C 95% Calm Calm -- 30.13 in1020.3 mb 0.02 in0.5 mm 0.00 in0.0 mm 0.07 in1.8 mm
08:45 PM 39.2°F4.0°C 37.9°F3.3°C 95% Calm Calm -- 30.12 in1020.0 mb 0.02 in0.5 mm 0.00 in0.0 mm 0.06 in1.5 mm
08:30 PM 39.2°F4.0°C 37.9°F3.3°C 95% Calm Calm 1.0 mph1.6 kmh 30.12 in1020.0 mb 0.02 in0.5 mm 0.00 in0.0 mm 0.06 in1.5 mm
08:15 PM 39.1°F3.9°C 37.8°F3.2°C 95% Calm Calm 1.0 mph1.6 kmh 30.12 in1020.0 mb 0.02 in0.5 mm 0.00 in0.0 mm 0.05 in1.3 mm
08:00 PM 39.1°F3.9°C 37.8°F3.2°C 95% Calm Calm 2.0 mph3.2 kmh 30.12 in1020.0 mb 0.02 in0.5 mm 0.00 in0.0 mm 0.05 in1.3 mm
07:45 PM 38.9°F3.8°C 37.6°F3.1°C 95% Calm Calm 1.0 mph1.6 kmh 30.12 in1020.0 mb 0.02 in0.5 mm 0.00 in0.0 mm 0.04 in1.0 mm
07:30 PM 38.9°F3.8°C 37.3°F2.9°C 94% Calm Calm 1.0 mph1.6 kmh 30.12 in1020.0 mb 0.02 in0.5 mm 0.04 in1.0 mm 0.04 in1.0 mm
07:15 PM 38.8°F3.8°C 37.2°F2.9°C 94% Calm Calm 2.0 mph3.2 kmh 30.12 in1020.0 mb 0.01 in0.3 mm 0.00 in0.0 mm 0.03 in0.8 mm
07:00 PM 38.7°F3.7°C 36.9°F2.7°C 93% Calm Calm 2.0 mph3.2 kmh 30.12 in1020.0 mb 0.02 in0.5 mm 0.01 in0.3 mm 0.03 in0.8 mm
06:45 PM 38.9°F3.8°C 37.0°F2.8°C 93% Calm Calm 1.0 mph1.6 kmh 30.13 in1020.3 mb 0.01 in0.3 mm 0.00 in0.0 mm 0.02 in0.5 mm
06:30 PM 38.9°F3.8°C 36.8°F2.7°C 92% Calm Calm 1.0 mph1.6 kmh 30.13 in1020.3 mb 0.01 in0.3 mm 0.00 in0.0 mm 0.02 in0.5 mm
06:15 PM 39.2°F4.0°C 36.8°F2.7°C 91% Calm Calm 1.0 mph1.6 kmh 30.13 in1020.3 mb 0.01 in0.3 mm 0.04 in1.0 mm 0.02 in0.5 mm
06:00 PM 39.6°F4.2°C 37.2°F2.9°C 91% Calm Calm -- 30.13 in1020.3 mb 0.00 in0.0 mm 0.00 in0.0 mm 0.01 in0.3 mm
05:45 PM 39.9°F4.4°C 37.2°F2.9°C 90% Calm Calm 1.0 mph1.6 kmh 30.12 in1020.0 mb 0.01 in0.3 mm 0.00 in0.0 mm 0.01 in0.3 mm
05:30 PM 40.3°F4.6°C 37.3°F2.9°C 89% Calm Calm 1.0 mph1.6 kmh 30.12 in1020.0 mb 0.01 in0.3 mm 0.00 in0.0 mm 0.01 in0.3 mm
05:15 PM 40.6°F4.8°C 37.3°F2.9°C 88% Calm Calm 1.0 mph1.6 kmh 30.12 in1020.0 mb 0.01 in0.3 mm 0.00 in0.0 mm 0.01 in0.3 mm
05:00 PM 40.7°F4.8°C 37.4°F3.0°C 88% Calm Calm 1.0 mph1.6 kmh 30.11 in1019.6 mb 0.01 in0.3 mm 0.01 in0.3 mm 0.01 in0.3 mm
04:45 PM 40.9°F4.9°C 37.0°F2.8°C 86% Calm Calm 1.0 mph1.6 kmh 30.11 in1019.6 mb 0.00 in0.0 mm 0.00 in0.0 mm 0.00 in0.0 mm
04:30 PM 41.0°F5.0°C 37.1°F2.8°C 86% Calm Calm -- 30.11 in1019.6 mb 0.00 in0.0 mm 0.00 in0.0 mm 0.00 in0.0 mm
04:15 PM 41.3°F5.2°C 36.8°F2.7°C 84% Calm Calm 1.0 mph1.6 kmh 30.11 in1019.6 mb 0.00 in0.0 mm 0.00 in0.0 mm 0.00 in0.0 mm
04:00 PM 41.6°F5.3°C 36.8°F2.7°C 83% Calm Calm 1.0 mph1.6 kmh 30.12 in1020.0 mb 0.00 in0.0 mm 0.00 in0.0 mm 0.00 in0.0 mm
03:45 PM 41.9°F5.5°C 36.8°F2.7°C 82% Calm Calm 1.0 mph1.6 kmh 30.12 in1020.0 mb 0.00 in0.0 mm 0.00 in0.0 mm 0.00 in0.0 mm
03:30 PM 42.0°F5.6°C 36.9°F2.7°C 82% Calm Calm 2.0 mph3.2 kmh 30.12 in1020.0 mb 0.00 in0.0 mm 0.00 in0.0 mm 0.00 in0.0 mm
03:15 PM 42.1°F5.6°C 37.0°F2.8°C 82% Calm Calm 1.0 mph1.6 kmh 30.11 in1019.6 mb 0.00 in0.0 mm 0.00 in0.0 mm 0.00 in0.0 mm
03:00 PM 42.1°F5.6°C 37.0°F2.8°C 82% Calm Calm 1.0 mph1.6 kmh 30.10 in1019.3 mb 0.00 in0.0 mm 0.00 in0.0 mm 0.00 in0.0 mm
02:45 PM 42.0°F5.6°C 36.9°F2.7°C 82% Calm Calm -- 30.10 in1019.3 mb 0.00 in0.0 mm 0.00 in0.0 mm 0.00 in0.0 mm
02:30 PM 42.2°F5.7°C 36.8°F2.7°C 81% 1.0 mph E1.6 kmh E 2.0 mph3.2 kmh 30.11 in1019.6 mb 0.00 in0.0 mm 0.00 in0.0 mm 0.00 in0.0 mm
02:15 PM 42.4°F5.8°C 37.0°F2.8°C 81% Calm Calm 1.0 mph1.6 kmh 30.11 in1019.6 mb 0.00 in0.0 mm 0.00 in0.0 mm 0.00 in0.0 mm
02:00 PM 42.8°F6.0°C 37.1°F2.8°C 80% Calm Calm 2.0 mph3.2 kmh 30.11 in1019.6 mb 0.00 in0.0 mm 0.00 in0.0 mm 0.00 in0.0 mm
01:45 PM 43.3°F6.3°C 37.2°F2.9°C 79% 1.0 mph E1.6 kmh E 1.0 mph1.6 kmh 30.10 in1019.3 mb 0.00 in0.0 mm 0.00 in0.0 mm 0.00 in0.0 mm
01:30 PM 43.0°F6.1°C 37.6°F3.1°C 81% Calm Calm 2.0 mph3.2 kmh 30.11 in1019.6 mb 0.00 in0.0 mm 0.00 in0.0 mm 0.00 in0.0 mm
01:15 PM 40.2°F4.6°C 35.4°F1.9°C 83% 1.0 mph E1.6 kmh E 3.0 mph4.8 kmh 30.12 in1020.0 mb 0.00 in0.0 mm 0.00 in0.0 mm 0.00 in0.0 mm
01:00 PM 40.0°F4.4°C 35.3°F1.8°C 83% 1.0 mph E1.6 kmh E 2.0 mph3.2 kmh 30.12 in1020.0 mb 0.00 in0.0 mm 0.00 in0.0 mm 0.00 in0.0 mm
12:45 PM 40.6°F4.8°C 34.6°F1.4°C 79% 1.0 mph E1.6 kmh E 5.0 mph8.0 kmh 30.13 in1020.3 mb 0.00 in0.0 mm 0.00 in0.0 mm 0.00 in0.0 mm
12:30 PM 43.1°F6.2°C 35.0°F1.7°C 73% 2.0 mph ESE3.2 kmh ESE 7.0 mph11.3 kmh 30.13 in1020.3 mb 0.00 in0.0 mm 0.00 in0.0 mm 0.00 in0.0 mm
12:15 PM 43.3°F6.3°C 34.5°F1.4°C 71% 2.0 mph ESE3.2 kmh ESE 3.0 mph4.8 kmh 30.11 in1019.6 mb 0.00 in0.0 mm 0.00 in0.0 mm 0.00 in0.0 mm
12:00 PM 42.9°F6.1°C 33.4°F0.8°C 69% 2.0 mph E3.2 kmh E 6.0 mph9.7 kmh 30.10 in1019.3 mb 0.00 in0.0 mm 0.00 in0.0 mm 0.00 in0.0 mm
11:45 AM 42.4°F5.8°C 33.3°F0.7°C 70% 1.0 mph E1.6 kmh E 5.0 mph8.0 kmh 30.10 in1019.3 mb 0.00 in0.0 mm 0.00 in0.0 mm 0.00 in0.0 mm
11:30 AM 40.9°F4.9°C 32.6°F0.3°C 72% 2.0 mph E3.2 kmh E 4.0 mph6.4 kmh 30.11 in1019.6 mb 0.00 in0.0 mm 0.00 in0.0 mm 0.00 in0.0 mm
11:15 AM 40.3°F4.6°C 32.3°F0.2°C 73% 1.0 mph E1.6 kmh E 5.0 mph8.0 kmh 30.11 in1019.6 mb 0.00 in0.0 mm 0.00 in0.0 mm 0.00 in0.0 mm
11:00 AM 39.6°F4.2°C 31.7°F-0.2°C 73% 1.0 mph E1.6 kmh E 3.0 mph4.8 kmh 30.11 in1019.6 mb 0.00 in0.0 mm 0.00 in0.0 mm 0.00 in0.0 mm
10:45 AM 39.2°F4.0°C 31.6°F-0.2°C 74% 1.0 mph E1.6 kmh E 2.0 mph3.2 kmh 30.12 in1020.0 mb 0.00 in0.0 mm 0.00 in0.0 mm 0.00 in0.0 mm
10:30 AM 37.5°F3.1°C 30.9°F-0.6°C 77% 1.0 mph E1.6 kmh E 3.0 mph4.8 kmh 30.13 in1020.3 mb 0.00 in0.0 mm 0.00 in0.0 mm 0.00 in0.0 mm
10:15 AM 36.1°F2.3°C 30.2°F-1.0°C 79% 1.0 mph E1.6 kmh E 5.0 mph8.0 kmh 30.12 in1020.0 mb 0.00 in0.0 mm 0.00 in0.0 mm 0.00 in0.0 mm
10:00 AM 34.4°F1.3°C 30.4°F-0.9°C 85% 1.0 mph E1.6 kmh E 3.0 mph4.8 kmh 30.12 in1020.0 mb 0.00 in0.0 mm 0.00 in0.0 mm 0.00 in0.0 mm
09:45 AM 32.7°F0.4°C 29.8°F-1.2°C 89% Calm Calm 1.0 mph1.6 kmh 30.12 in1020.0 mb 0.00 in0.0 mm 0.00 in0.0 mm 0.00 in0.0 mm
09:30 AM 32.1°F0.1°C 29.5°F-1.4°C 90% Calm Calm 1.0 mph1.6 kmh 30.13 in1020.3 mb 0.00 in0.0 mm 0.00 in0.0 mm 0.00 in0.0 mm
09:15 AM 31.8°F-0.1°C 29.5°F-1.4°C 91% Calm Calm 2.0 mph3.2 kmh 30.13 in1020.3 mb 0.00 in0.0 mm 0.00 in0.0 mm 0.00 in0.0 mm
09:00 AM 31.2°F-0.4°C 29.7°F-1.3°C 94% Calm Calm 2.0 mph3.2 kmh 30.13 in1020.3 mb 0.00 in0.0 mm 0.00 in0.0 mm 0.00 in0.0 mm
08:45 AM 29.0°F-1.7°C 27.7°F-2.4°C 95% Calm Calm 2.0 mph3.2 kmh 30.14 in1020.7 mb 0.00 in0.0 mm 0.00 in0.0 mm 0.00 in0.0 mm
08:30 AM 26.9°F-2.8°C 25.7°F-3.5°C 95% Calm Calm 1.0 mph1.6 kmh 30.14 in1020.7 mb 0.00 in0.0 mm 0.00 in0.0 mm 0.00 in0.0 mm
08:15 AM 24.5°F-4.2°C 23.0°F-5.0°C 94% Calm Calm -- 30.13 in1020.3 mb 0.00 in0.0 mm 0.00 in0.0 mm 0.00 in0.0 mm
08:00 AM 23.6°F-4.7°C 21.9°F-5.6°C 93% Calm Calm -- 30.13 in1020.3 mb 0.00 in0.0 mm 0.00 in0.0 mm 0.00 in0.0 mm
07:45 AM 23.4°F-4.8°C 21.7°F-5.7°C 93% Calm Calm -- 30.13 in1020.3 mb 0.00 in0.0 mm 0.00 in0.0 mm 0.00 in0.0 mm
07:30 AM 23.3°F-4.8°C 21.6°F-5.8°C 93% Calm Calm -- 30.12 in1020.0 mb 0.00 in0.0 mm 0.00 in0.0 mm 0.00 in0.0 mm
07:15 AM 22.9°F-5.1°C 21.2°F-6.0°C 93% Calm Calm -- 30.11 in1019.6 mb 0.00 in0.0 mm 0.00 in0.0 mm 0.00 in0.0 mm
07:00 AM 22.6°F-5.2°C 20.9°F-6.2°C 93% Calm Calm -- 30.10 in1019.3 mb 0.00 in0.0 mm 0.00 in0.0 mm 0.00 in0.0 mm
06:45 AM 22.6°F-5.2°C 20.9°F-6.2°C 93% Calm Calm -- 30.10 in1019.3 mb 0.00 in0.0 mm 0.00 in0.0 mm 0.00 in0.0 mm
06:30 AM 22.7°F-5.2°C 21.0°F-6.1°C 93% Calm Calm -- 30.10 in1019.3 mb 0.00 in0.0 mm 0.00 in0.0 mm 0.00 in0.0 mm
06:15 AM 22.7°F-5.2°C 20.7°F-6.3°C 92% Calm Calm -- 30.10 in1019.3 mb 0.00 in0.0 mm 0.00 in0.0 mm 0.00 in0.0 mm
06:00 AM 22.8°F-5.1°C 20.8°F-6.2°C 92% Calm Calm -- 30.10 in1019.3 mb 0.00 in0.0 mm 0.00 in0.0 mm 0.00 in0.0 mm
05:45 AM 22.9°F-5.1°C 20.9°F-6.2°C 92% Calm Calm -- 30.09 in1019.0 mb 0.00 in0.0 mm 0.00 in0.0 mm 0.00 in0.0 mm
05:30 AM 23.0°F-5.0°C 21.0°F-6.1°C 92% Calm Calm -- 30.09 in1019.0 mb 0.00 in0.0 mm 0.00 in0.0 mm 0.00 in0.0 mm
05:15 AM 22.9°F-5.1°C 20.9°F-6.2°C 92% Calm Calm -- 30.08 in1018.6 mb 0.00 in0.0 mm 0.00 in0.0 mm 0.00 in0.0 mm
05:00 AM 22.8°F-5.1°C 20.8°F-6.2°C 92% Calm Calm -- 30.08 in1018.6 mb 0.00 in0.0 mm 0.00 in0.0 mm 0.00 in0.0 mm
04:45 AM 22.8°F-5.1°C 20.8°F-6.2°C 92% Calm Calm -- 30.08 in1018.6 mb 0.00 in0.0 mm 0.00 in0.0 mm 0.00 in0.0 mm
04:30 AM 23.0°F-5.0°C 21.0°F-6.1°C 92% Calm Calm -- 30.07 in1018.3 mb 0.00 in0.0 mm 0.00 in0.0 mm 0.00 in0.0 mm
04:15 AM 23.1°F-4.9°C 21.1°F-6.1°C 92% Calm Calm -- 30.07 in1018.3 mb 0.00 in0.0 mm 0.00 in0.0 mm 0.00 in0.0 mm
04:00 AM 23.2°F-4.9°C 21.2°F-6.0°C 92% Calm Calm -- 30.06 in1017.9 mb 0.00 in0.0 mm 0.00 in0.0 mm 0.00 in0.0 mm
03:45 AM 23.3°F-4.8°C 21.1°F-6.1°C 91% Calm Calm -- 30.06 in1017.9 mb 0.00 in0.0 mm 0.00 in0.0 mm 0.00 in0.0 mm
03:30 AM 23.3°F-4.8°C 21.1°F-6.1°C 91% Calm Calm -- 30.05 in1017.6 mb 0.00 in0.0 mm 0.00 in0.0 mm 0.00 in0.0 mm
03:15 AM 23.3°F-4.8°C 21.1°F-6.1°C 91% Calm Calm 1.0 mph1.6 kmh 30.04 in1017.3 mb 0.00 in0.0 mm 0.00 in0.0 mm 0.00 in0.0 mm
03:00 AM 23.3°F-4.8°C 21.1°F-6.1°C 91% Calm Calm -- 30.05 in1017.6 mb 0.00 in0.0 mm 0.00 in0.0 mm 0.00 in0.0 mm
02:45 AM 23.5°F-4.7°C 21.3°F-5.9°C 91% Calm Calm -- 30.05 in1017.6 mb 0.00 in0.0 mm 0.00 in0.0 mm 0.00 in0.0 mm
02:30 AM 23.8°F-4.6°C 21.3°F-5.9°C 90% Calm Calm -- 30.04 in1017.3 mb 0.00 in0.0 mm 0.00 in0.0 mm 0.00 in0.0 mm
02:15 AM 24.0°F-4.4°C 21.5°F-5.8°C 90% Calm Calm -- 30.04 in1017.3 mb 0.00 in0.0 mm 0.00 in0.0 mm 0.00 in0.0 mm
02:00 AM 24.2°F-4.3°C 21.7°F-5.7°C 90% Calm Calm -- 30.04 in1017.3 mb 0.00 in0.0 mm 0.00 in0.0 mm 0.00 in0.0 mm
01:45 AM 24.5°F-4.2°C 22.0°F-5.6°C 90% Calm Calm -- 30.03 in1016.9 mb 0.00 in0.0 mm 0.00 in0.0 mm 0.00 in0.0 mm
01:30 AM 24.9°F-3.9°C 22.1°F-5.5°C 89% Calm Calm -- 30.03 in1016.9 mb 0.00 in0.0 mm 0.00 in0.0 mm 0.00 in0.0 mm
01:15 AM 25.2°F-3.8°C 22.4°F-5.3°C 89% Calm Calm -- 30.02 in1016.6 mb 0.00 in0.0 mm 0.00 in0.0 mm 0.00 in0.0 mm
01:00 AM 25.5°F-3.6°C 22.7°F-5.2°C 89% Calm Calm -- 30.02 in1016.6 mb 0.00 in0.0 mm 0.00 in0.0 mm 0.00 in0.0 mm
12:45 AM 25.8°F-3.4°C 22.7°F-5.2°C 88% Calm Calm -- 30.02 in1016.6 mb 0.00 in0.0 mm 0.00 in0.0 mm 0.00 in0.0 mm
12:30 AM 26.2°F-3.2°C 23.1°F-4.9°C 88% Calm Calm -- 30.02 in1016.6 mb 0.00 in0.0 mm 0.00 in0.0 mm 0.00 in0.0 mm
12:15 AM 26.6°F-3.0°C 23.5°F-4.7°C 88% Calm Calm -- 30.02 in1016.6 mb 0.00 in0.0 mm 0.00 in0.0 mm 0.00 in0.0 mm
12:00 AM 27.1°F-2.7°C 24.0°F-4.4°C 88% Calm Calm -- 30.01 in1016.3 mb 0.00 in0.0 mm 0.00 in0.0 mm 0.00 in0.0 mm